sensor_id;sensor_type;location;lat;lon;timestamp;pressure;altitude;pressure_sealevel;temperature;humidity
79707;BME280;69200;53.612;-2.416;2023-04-24T00:02:18;98977.59;;;5.51;71.50
79707;BME280;69200;53.612;-2.416;2023-04-24T00:04:44;98978.50;;;5.45;72.04
79707;BME280;69200;53.612;-2.416;2023-04-24T00:07:12;98988.44;;;5.45;71.82
79707;BME280;69200;53.612;-2.416;2023-04-24T00:09:38;98978.16;;;5.42;71.94
79707;BME280;69200;53.612;-2.416;2023-04-24T00:12:04;98980.19;;;5.46;71.49
79707;BME280;69200;53.612;-2.416;2023-04-24T00:14:32;98966.41;;;5.24;72.39
79707;BME280;69200;53.612;-2.416;2023-04-24T00:16:58;98978.72;;;5.32;72.77
79707;BME280;69200;53.612;-2.416;2023-04-24T00:19:23;98984.34;;;5.42;71.40
79707;BME280;69200;53.612;-2.416;2023-04-24T00:21:48;98981.00;;;5.47;71.46
79707;BME280;69200;53.612;-2.416;2023-04-24T00:24:17;98988.00;;;5.48;71.29
79707;BME280;69200;53.612;-2.416;2023-04-24T00:26:43;98990.69;;;5.48;71.21
79707;BME280;69200;53.612;-2.416;2023-04-24T00:29:08;98986.56;;;5.45;72.43
79707;BME280;69200;53.612;-2.416;2023-04-24T00:31:34;98989.66;;;5.49;72.71
79707;BME280;69200;53.612;-2.416;2023-04-24T00:34:03;98989.91;;;5.59;73.14
79707;BME280;69200;53.612;-2.416;2023-04-24T00:36:28;98994.72;;;5.69;73.47
79707;BME280;69200;53.612;-2.416;2023-04-24T00:38:54;98996.09;;;5.59;73.11
79707;BME280;69200;53.612;-2.416;2023-04-24T00:41:21;98993.84;;;5.45;72.04
79707;BME280;69200;53.612;-2.416;2023-04-24T00:43:47;98993.84;;;5.45;72.98
79707;BME280;69200;53.612;-2.416;2023-04-24T00:46:12;98999.72;;;5.53;72.67
79707;BME280;69200;53.612;-2.416;2023-04-24T00:48:39;98993.75;;;5.51;71.66
79707;BME280;69200;53.612;-2.416;2023-04-24T00:51:05;99005.31;;;5.52;70.68
79707;BME280;69200;53.612;-2.416;2023-04-24T00:53:30;99005.53;;;5.39;70.30
79707;BME280;69200;53.612;-2.416;2023-04-24T00:55:57;98995.00;;;5.19;70.66
79707;BME280;69200;53.612;-2.416;2023-04-24T00:58:22;99004.38;;;5.16;70.24
79707;BME280;69200;53.612;-2.416;2023-04-24T01:00:49;98996.59;;;5.08;70.58
79707;BME280;69200;53.612;-2.416;2023-04-24T01:03:21;99001.75;;;5.10;70.57
79707;BME280;69200;53.612;-2.416;2023-04-24T01:05:48;99007.06;;;5.16;70.18
79707;BME280;69200;53.612;-2.416;2023-04-24T01:08:14;99006.38;;;5.02;70.67
79707;BME280;69200;53.612;-2.416;2023-04-24T01:10:41;99013.69;;;4.95;70.79
79707;BME280;69200;53.612;-2.416;2023-04-24T01:13:07;99002.66;;;5.03;69.90
79707;BME280;69200;53.612;-2.416;2023-04-24T01:15:33;99004.06;;;4.88;70.23
79707;BME280;69200;53.612;-2.416;2023-04-24T01:17:59;99015.28;;;5.03;69.87
79707;BME280;69200;53.612;-2.416;2023-04-24T01:20:24;99021.84;;;5.07;70.07
79707;BME280;69200;53.612;-2.416;2023-04-24T01:22:51;99013.47;;;4.97;70.32
79707;BME280;69200;53.612;-2.416;2023-04-24T01:25:17;99014.41;;;4.91;70.26
79707;BME280;69200;53.612;-2.416;2023-04-24T01:27:42;99004.88;;;4.88;69.96
79707;BME280;69200;53.612;-2.416;2023-04-24T01:30:09;99022.69;;;4.89;70.42
79707;BME280;69200;53.612;-2.416;2023-04-24T01:32:35;99023.06;;;4.93;70.96
79707;BME280;69200;53.612;-2.416;2023-04-24T01:35:01;99007.22;;;4.85;69.74
79707;BME280;69200;53.612;-2.416;2023-04-24T01:37:27;99030.06;;;4.94;71.11
79707;BME280;69200;53.612;-2.416;2023-04-24T01:39:52;99022.59;;;4.96;69.63
79707;BME280;69200;53.612;-2.416;2023-04-24T01:42:18;99026.25;;;5.01;70.38
79707;BME280;69200;53.612;-2.416;2023-04-24T01:44:44;99029.53;;;5.03;70.70
79707;BME280;69200;53.612;-2.416;2023-04-24T01:47:10;99037.25;;;5.00;71.29
79707;BME280;69200;53.612;-2.416;2023-04-24T01:49:37;99034.59;;;5.12;70.68
79707;BME280;69200;53.612;-2.416;2023-04-24T01:52:03;99029.31;;;4.87;70.33
79707;BME280;69200;53.612;-2.416;2023-04-24T01:54:28;99030.06;;;4.94;70.00
79707;BME280;69200;53.612;-2.416;2023-04-24T01:56:54;99042.97;;;4.85;70.69
79707;BME280;69200;53.612;-2.416;2023-04-24T01:59:20;99042.09;;;4.91;72.03
79707;BME280;69200;53.612;-2.416;2023-04-24T02:01:46;99046.94;;;5.01;70.96
79707;BME280;69200;53.612;-2.416;2023-04-24T02:04:11;99035.13;;;5.02;70.06
79707;BME280;69200;53.612;-2.416;2023-04-24T02:06:36;99046.13;;;5.00;71.25
79707;BME280;69200;53.612;-2.416;2023-04-24T02:09:02;99048.88;;;5.12;70.45
79707;BME280;69200;53.612;-2.416;2023-04-24T02:11:28;99042.22;;;4.96;70.96
79707;BME280;69200;53.612;-2.416;2023-04-24T02:13:54;99051.72;;;4.99;70.16
79707;BME280;69200;53.612;-2.416;2023-04-24T02:16:19;99053.28;;;5.07;70.94
79707;BME280;69200;53.612;-2.416;2023-04-24T02:18:45;99049.09;;;5.11;70.59
79707;BME280;69200;53.612;-2.416;2023-04-24T02:21:10;99054.13;;;5.07;71.34
79707;BME280;69200;53.612;-2.416;2023-04-24T02:23:36;99051.34;;;5.14;69.74
79707;BME280;69200;53.612;-2.416;2023-04-24T02:26:01;99049.41;;;5.02;69.95
79707;BME280;69200;53.612;-2.416;2023-04-24T02:28:26;99049.91;;;5.11;70.17
79707;BME280;69200;53.612;-2.416;2023-04-24T02:30:52;99048.50;;;5.09;69.66
79707;BME280;69200;53.612;-2.416;2023-04-24T02:33:17;99060.97;;;5.03;71.08
79707;BME280;69200;53.612;-2.416;2023-04-24T02:35:43;99053.38;;;5.00;70.62
79707;BME280;69200;53.612;-2.416;2023-04-24T02:38:08;99056.47;;;4.97;70.78
79707;BME280;69200;53.612;-2.416;2023-04-24T02:40:33;99055.31;;;4.93;69.65
79707;BME280;69200;53.612;-2.416;2023-04-24T02:42:59;99054.72;;;4.91;70.27
79707;BME280;69200;53.612;-2.416;2023-04-24T02:45:24;99059.34;;;4.84;71.19
79707;BME280;69200;53.612;-2.416;2023-04-24T02:47:50;99047.91;;;4.88;70.92
79707;BME280;69200;53.612;-2.416;2023-04-24T02:50:15;99046.31;;;4.81;71.42
79707;BME280;69200;53.612;-2.416;2023-04-24T02:52:40;99045.59;;;4.73;71.69
79707;BME280;69200;53.612;-2.416;2023-04-24T02:55:06;99053.78;;;4.78;71.26
79707;BME280;69200;53.612;-2.416;2023-04-24T02:57:33;99057.06;;;4.81;70.99
79707;BME280;69200;53.612;-2.416;2023-04-24T02:59:58;99047.31;;;4.68;71.88
79707;BME280;69200;53.612;-2.416;2023-04-24T03:02:24;99062.75;;;4.72;71.45
79707;BME280;69200;53.612;-2.416;2023-04-24T03:04:49;99072.47;;;4.73;71.07
79707;BME280;69200;53.612;-2.416;2023-04-24T03:07:14;99071.09;;;4.64;70.44
79707;BME280;69200;53.612;-2.416;2023-04-24T03:09:40;99075.44;;;4.65;71.73
79707;BME280;69200;53.612;-2.416;2023-04-24T03:12:06;99074.25;;;4.80;70.86
79707;BME280;69200;53.612;-2.416;2023-04-24T03:14:31;99063.94;;;4.76;69.71
79707;BME280;69200;53.612;-2.416;2023-04-24T03:16:57;99075.59;;;4.70;70.26
79707;BME280;69200;53.612;-2.416;2023-04-24T03:19:22;99079.38;;;4.63;70.42
79707;BME280;69200;53.612;-2.416;2023-04-24T03:21:48;99082.88;;;4.63;70.31
79707;BME280;69200;53.612;-2.416;2023-04-24T03:24:14;99082.13;;;4.56;69.42
79707;BME280;69200;53.612;-2.416;2023-04-24T03:26:39;99080.88;;;4.59;69.74
79707;BME280;69200;53.612;-2.416;2023-04-24T03:29:04;99082.13;;;4.56;69.93
79707;BME280;69200;53.612;-2.416;2023-04-24T03:31:30;99078.47;;;4.51;71.03
79707;BME280;69200;53.612;-2.416;2023-04-24T03:33:55;99085.47;;;4.52;70.67
79707;BME280;69200;53.612;-2.416;2023-04-24T03:36:20;99087.88;;;4.60;70.03
79707;BME280;69200;53.612;-2.416;2023-04-24T03:38:46;99091.09;;;4.68;71.11
79707;BME280;69200;53.612;-2.416;2023-04-24T03:41:11;99090.16;;;4.56;71.05
79707;BME280;69200;53.612;-2.416;2023-04-24T03:43:37;99097.31;;;4.69;70.33
79707;BME280;69200;53.612;-2.416;2023-04-24T03:46:02;99111.72;;;4.74;70.25
79707;BME280;69200;53.612;-2.416;2023-04-24T03:48:28;99096.84;;;4.72;70.74
79707;BME280;69200;53.612;-2.416;2023-04-24T03:50:53;99069.41;;;4.45;73.23
79707;BME280;69200;53.612;-2.416;2023-04-24T03:53:18;99098.00;;;4.33;72.71
79707;BME280;69200;53.612;-2.416;2023-04-24T03:55:45;99107.63;;;4.47;71.44
79707;BME280;69200;53.612;-2.416;2023-04-24T03:58:10;99108.75;;;4.33;73.37
79707;BME280;69200;53.612;-2.416;2023-04-24T04:00:36;99114.31;;;4.38;72.51
79707;BME280;69200;53.612;-2.416;2023-04-24T04:03:03;99112.94;;;4.54;71.87
79707;BME280;69200;53.612;-2.416;2023-04-24T04:05:28;99113.56;;;4.49;73.38
79707;BME280;69200;53.612;-2.416;2023-04-24T04:07:54;99109.97;;;4.62;71.54
79707;BME280;69200;53.612;-2.416;2023-04-24T04:10:19;99110.16;;;4.42;71.75
79707;BME280;69200;53.612;-2.416;2023-04-24T04:12:45;99107.00;;;4.45;71.21
79707;BME280;69200;53.612;-2.416;2023-04-24T04:15:10;99112.84;;;4.42;70.91
79707;BME280;69200;53.612;-2.416;2023-04-24T04:17:36;99112.56;;;4.50;70.08
79707;BME280;69200;53.612;-2.416;2023-04-24T04:20:03;99118.22;;;4.42;72.00
79707;BME280;69200;53.612;-2.416;2023-04-24T04:22:32;99118.75;;;4.75;70.46
79707;BME280;69200;53.612;-2.416;2023-04-24T04:24:57;99118.84;;;4.62;70.68
79707;BME280;69200;53.612;-2.416;2023-04-24T04:27:23;99125.28;;;4.61;70.06
79707;BME280;69200;53.612;-2.416;2023-04-24T04:29:48;99116.91;;;4.51;71.04
79707;BME280;69200;53.612;-2.416;2023-04-24T04:32:13;99127.72;;;4.38;72.26
79707;BME280;69200;53.612;-2.416;2023-04-24T04:34:40;99112.13;;;4.53;70.55
79707;BME280;69200;53.612;-2.416;2023-04-24T04:37:05;99124.13;;;4.26;69.77
79707;BME280;69200;53.612;-2.416;2023-04-24T04:39:31;99133.16;;;4.31;70.79
79707;BME280;69200;53.612;-2.416;2023-04-24T04:41:56;99144.81;;;4.50;70.42
79707;BME280;69200;53.612;-2.416;2023-04-24T04:44:22;99143.84;;;4.38;70.59
79707;BME280;69200;53.612;-2.416;2023-04-24T04:46:48;99143.22;;;4.67;68.71
79707;BME280;69200;53.612;-2.416;2023-04-24T04:49:14;99149.00;;;4.39;69.39
79707;BME280;69200;53.612;-2.416;2023-04-24T04:51:41;99152.72;;;4.38;71.23
79707;BME280;69200;53.612;-2.416;2023-04-24T04:54:07;99158.22;;;4.50;70.38
79707;BME280;69200;53.612;-2.416;2023-04-24T04:56:32;99153.66;;;4.26;70.12
79707;BME280;69200;53.612;-2.416;2023-04-24T04:58:58;99153.13;;;4.42;70.09
79707;BME280;69200;53.612;-2.416;2023-04-24T05:01:24;99156.91;;;4.34;70.08
79707;BME280;69200;53.612;-2.416;2023-04-24T05:03:52;99154.91;;;4.16;70.40
79707;BME280;69200;53.612;-2.416;2023-04-24T05:06:18;99160.03;;;4.25;70.98
79707;BME280;69200;53.612;-2.416;2023-04-24T05:08:43;99162.88;;;4.36;69.87
79707;BME280;69200;53.612;-2.416;2023-04-24T05:11:08;99165.63;;;4.23;71.40
79707;BME280;69200;53.612;-2.416;2023-04-24T05:13:34;99159.88;;;4.51;69.70
79707;BME280;69200;53.612;-2.416;2023-04-24T05:15:59;99159.84;;;5.01;67.19
79707;BME280;69200;53.612;-2.416;2023-04-24T05:18:25;99164.53;;;5.49;65.99
79707;BME280;69200;53.612;-2.416;2023-04-24T05:20:50;99164.31;;;5.50;65.40
79707;BME280;69200;53.612;-2.416;2023-04-24T05:23:16;99166.63;;;5.65;64.25
79707;BME280;69200;53.612;-2.416;2023-04-24T05:25:41;99166.41;;;5.48;64.92
79707;BME280;69200;53.612;-2.416;2023-04-24T05:28:07;99169.44;;;5.15;66.54
79707;BME280;69200;53.612;-2.416;2023-04-24T05:30:32;99170.03;;;5.17;67.22
79707;BME280;69200;53.612;-2.416;2023-04-24T05:32:57;99176.13;;;5.31;67.62
79707;BME280;69200;53.612;-2.416;2023-04-24T05:35:23;99184.47;;;5.23;66.83
79707;BME280;69200;53.612;-2.416;2023-04-24T05:37:48;99194.88;;;5.38;65.86
79707;BME280;69200;53.612;-2.416;2023-04-24T05:40:13;99190.91;;;5.22;68.31
79707;BME280;69200;53.612;-2.416;2023-04-24T05:42:39;99193.59;;;5.22;66.63
79707;BME280;69200;53.612;-2.416;2023-04-24T05:45:05;99197.38;;;5.14;67.01
79707;BME280;69200;53.612;-2.416;2023-04-24T05:47:31;99198.88;;;5.28;67.85
79707;BME280;69200;53.612;-2.416;2023-04-24T05:49:56;99210.91;;;5.26;67.97
79707;BME280;69200;53.612;-2.416;2023-04-24T05:52:21;99211.97;;;5.00;68.31
79707;BME280;69200;53.612;-2.416;2023-04-24T05:54:47;99213.53;;;5.14;69.13
79707;BME280;69200;53.612;-2.416;2023-04-24T05:57:13;99220.66;;;5.02;69.69
79707;BME280;69200;53.612;-2.416;2023-04-24T05:59:38;99218.81;;;4.96;70.37
79707;BME280;69200;53.612;-2.416;2023-04-24T06:02:04;99223.38;;;4.95;71.51
79707;BME280;69200;53.612;-2.416;2023-04-24T06:04:29;99225.78;;;5.03;69.92
79707;BME280;69200;53.612;-2.416;2023-04-24T06:06:55;99209.94;;;4.95;69.66
79707;BME280;69200;53.612;-2.416;2023-04-24T06:09:22;99224.59;;;4.99;68.80
79707;BME280;69200;53.612;-2.416;2023-04-24T06:11:47;99215.44;;;5.07;69.44
79707;BME280;69200;53.612;-2.416;2023-04-24T06:14:13;99209.44;;;5.30;68.38
79707;BME280;69200;53.612;-2.416;2023-04-24T06:16:41;99223.03;;;5.53;67.52
79707;BME280;69200;53.612;-2.416;2023-04-24T06:19:06;99223.78;;;5.60;65.65
79707;BME280;69200;53.612;-2.416;2023-04-24T06:21:32;99223.38;;;5.64;66.23
79707;BME280;69200;53.612;-2.416;2023-04-24T06:23:57;99229.91;;;6.23;65.52
79707;BME280;69200;53.612;-2.416;2023-04-24T06:26:23;99223.25;;;7.55;61.40
79707;BME280;69200;53.612;-2.416;2023-04-24T06:28:50;99232.09;;;9.05;56.28
79707;BME280;69200;53.612;-2.416;2023-04-24T06:31:17;99232.78;;;9.68;54.59
79707;BME280;69200;53.612;-2.416;2023-04-24T06:33:43;99222.16;;;10.76;52.14
79707;BME280;69200;53.612;-2.416;2023-04-24T06:36:08;99225.41;;;11.05;50.41
79707;BME280;69200;53.612;-2.416;2023-04-24T06:38:34;99230.19;;;11.67;49.00
79707;BME280;69200;53.612;-2.416;2023-04-24T06:40:59;99237.44;;;12.81;46.50
79707;BME280;69200;53.612;-2.416;2023-04-24T06:43:25;99234.44;;;12.78;45.27
79707;BME280;69200;53.612;-2.416;2023-04-24T06:45:50;99233.38;;;13.55;44.63
79707;BME280;69200;53.612;-2.416;2023-04-24T06:48:15;99231.50;;;13.00;43.74
79707;BME280;69200;53.612;-2.416;2023-04-24T06:50:41;99218.78;;;10.36;46.84
79707;BME280;69200;53.612;-2.416;2023-04-24T06:53:06;99225.84;;;9.55;50.74
79707;BME280;69200;53.612;-2.416;2023-04-24T06:55:32;99238.81;;;9.36;52.59
79707;BME280;69200;53.612;-2.416;2023-04-24T06:57:57;99233.91;;;9.89;50.63
79707;BME280;69200;53.612;-2.416;2023-04-24T07:00:22;99236.41;;;10.17;50.32
79707;BME280;69200;53.612;-2.416;2023-04-24T07:02:49;99216.75;;;9.44;50.97
79707;BME280;69200;53.612;-2.416;2023-04-24T07:05:14;99240.06;;;9.12;51.91
79707;BME280;69200;53.612;-2.416;2023-04-24T07:07:40;99250.75;;;9.18;52.94
79707;BME280;69200;53.612;-2.416;2023-04-24T07:10:06;99235.66;;;10.22;49.65
79707;BME280;69200;53.612;-2.416;2023-04-24T07:12:31;99256.31;;;10.72;49.00
79707;BME280;69200;53.612;-2.416;2023-04-24T07:14:57;99249.63;;;10.57;48.38
79707;BME280;69200;53.612;-2.416;2023-04-24T07:17:22;99253.69;;;11.46;47.89
79707;BME280;69200;53.612;-2.416;2023-04-24T07:19:48;99255.50;;;12.15;44.62
79707;BME280;69200;53.612;-2.416;2023-04-24T07:22:13;99258.25;;;12.25;45.57
79707;BME280;69200;53.612;-2.416;2023-04-24T07:24:45;99267.78;;;12.32;44.72
79707;BME280;69200;53.612;-2.416;2023-04-24T07:27:10;99259.44;;;10.85;47.69
79707;BME280;69200;53.612;-2.416;2023-04-24T07:29:36;99253.34;;;9.30;50.79
79707;BME280;69200;53.612;-2.416;2023-04-24T07:32:02;99261.63;;;9.57;50.32
79707;BME280;69200;53.612;-2.416;2023-04-24T07:34:27;99261.03;;;8.88;52.78
79707;BME280;69200;53.612;-2.416;2023-04-24T07:36:53;99269.16;;;8.43;53.02
79707;BME280;69200;53.612;-2.416;2023-04-24T07:39:18;99274.88;;;7.82;54.69
79707;BME280;69200;53.612;-2.416;2023-04-24T07:41:44;99267.50;;;7.31;56.40
79707;BME280;69200;53.612;-2.416;2023-04-24T07:44:09;99271.38;;;7.47;57.06
79707;BME280;69200;53.612;-2.416;2023-04-24T07:46:35;99269.38;;;7.42;56.37
79707;BME280;69200;53.612;-2.416;2023-04-24T07:49:00;99263.91;;;6.95;57.43
79707;BME280;69200;53.612;-2.416;2023-04-24T07:51:26;99265.84;;;7.07;58.08
79707;BME280;69200;53.612;-2.416;2023-04-24T07:53:56;99260.22;;;7.43;56.22
79707;BME280;69200;53.612;-2.416;2023-04-24T07:56:21;99267.25;;;8.88;53.92
79707;BME280;69200;53.612;-2.416;2023-04-24T07:58:46;99264.94;;;9.81;50.74
79707;BME280;69200;53.612;-2.416;2023-04-24T08:01:12;99269.03;;;9.84;50.10
79707;BME280;69200;53.612;-2.416;2023-04-24T08:03:37;99261.13;;;10.21;49.67
79707;BME280;69200;53.612;-2.416;2023-04-24T08:06:03;99279.69;;;10.51;49.00
79707;BME280;69200;53.612;-2.416;2023-04-24T08:08:28;99277.22;;;10.49;48.69
79707;BME280;69200;53.612;-2.416;2023-04-24T08:10:54;99267.97;;;9.85;49.37
79707;BME280;69200;53.612;-2.416;2023-04-24T08:13:20;99281.31;;;9.02;51.24
79707;BME280;69200;53.612;-2.416;2023-04-24T08:15:45;99273.44;;;8.84;52.33
79707;BME280;69200;53.612;-2.416;2023-04-24T08:18:11;99275.59;;;8.99;51.36
79707;BME280;69200;53.612;-2.416;2023-04-24T08:20:37;99276.00;;;9.07;52.09
79707;BME280;69200;53.612;-2.416;2023-04-24T08:23:03;99282.31;;;8.67;52.43
79707;BME280;69200;53.612;-2.416;2023-04-24T08:25:28;99290.88;;;8.76;52.58
79707;BME280;69200;53.612;-2.416;2023-04-24T08:27:54;99296.44;;;8.58;53.10
79707;BME280;69200;53.612;-2.416;2023-04-24T08:30:19;99287.63;;;8.62;53.49
79707;BME280;69200;53.612;-2.416;2023-04-24T08:32:45;99293.78;;;9.03;53.28
79707;BME280;69200;53.612;-2.416;2023-04-24T08:35:11;99294.09;;;8.61;53.73
79707;BME280;69200;53.612;-2.416;2023-04-24T08:37:36;99277.38;;;8.93;52.66
79707;BME280;69200;53.612;-2.416;2023-04-24T08:40:06;99287.03;;;9.06;53.04
79707;BME280;69200;53.612;-2.416;2023-04-24T08:42:34;99293.22;;;8.44;52.74
79707;BME280;69200;53.612;-2.416;2023-04-24T08:45:02;99304.19;;;8.37;52.69
79707;BME280;69200;53.612;-2.416;2023-04-24T08:47:28;99299.69;;;8.43;53.64
79707;BME280;69200;53.612;-2.416;2023-04-24T08:49:55;99306.31;;;8.35;54.41
79707;BME280;69200;53.612;-2.416;2023-04-24T08:52:21;99296.19;;;9.16;53.31
79707;BME280;69200;53.612;-2.416;2023-04-24T08:54:47;99297.72;;;9.29;51.99
79707;BME280;69200;53.612;-2.416;2023-04-24T08:57:14;99292.41;;;9.17;52.31
79707;BME280;69200;53.612;-2.416;2023-04-24T08:59:40;99292.97;;;9.19;51.90
79707;BME280;69200;53.612;-2.416;2023-04-24T09:02:06;99296.84;;;9.23;51.63
79707;BME280;69200;53.612;-2.416;2023-04-24T09:04:35;99297.50;;;9.47;52.25
79707;BME280;69200;53.612;-2.416;2023-04-24T09:07:01;99301.50;;;9.45;51.90
79707;BME280;69200;53.612;-2.416;2023-04-24T09:09:30;99300.63;;;9.56;51.31
79707;BME280;69200;53.612;-2.416;2023-04-24T09:11:56;99288.38;;;9.20;50.39
79707;BME280;69200;53.612;-2.416;2023-04-24T09:14:23;99287.66;;;9.24;50.67
79707;BME280;69200;53.612;-2.416;2023-04-24T09:16:49;99308.50;;;9.41;50.53
79707;BME280;69200;53.612;-2.416;2023-04-24T09:19:15;99306.81;;;9.06;50.02
79707;BME280;69200;53.612;-2.416;2023-04-24T09:21:40;99313.50;;;8.87;50.29
79707;BME280;69200;53.612;-2.416;2023-04-24T09:24:14;99306.38;;;8.97;51.49
79707;BME280;69200;53.612;-2.416;2023-04-24T09:26:43;99308.78;;;8.94;51.65
79707;BME280;69200;53.612;-2.416;2023-04-24T09:29:14;99315.84;;;9.62;49.78
79707;BME280;69200;53.612;-2.416;2023-04-24T09:31:40;99326.16;;;9.99;48.68
79707;BME280;69200;53.612;-2.416;2023-04-24T09:34:06;99312.84;;;9.42;50.49
79707;BME280;69200;53.612;-2.416;2023-04-24T09:39:05;99315.53;;;9.08;48.10
79707;BME280;69200;53.612;-2.416;2023-04-24T09:41:33;99317.75;;;9.11;50.84
79707;BME280;69200;53.612;-2.416;2023-04-24T09:46:38;99314.84;;;9.85;48.03
79707;BME280;69200;53.612;-2.416;2023-04-24T09:49:08;99312.75;;;9.87;48.52
79707;BME280;69200;53.612;-2.416;2023-04-24T09:51:36;99310.78;;;9.66;47.80
79707;BME280;69200;53.612;-2.416;2023-04-24T09:54:03;99314.63;;;9.53;49.00
79707;BME280;69200;53.612;-2.416;2023-04-24T09:56:32;99327.88;;;9.49;48.70
79707;BME280;69200;53.612;-2.416;2023-04-24T09:59:07;99319.72;;;9.16;49.34
79707;BME280;69200;53.612;-2.416;2023-04-24T10:01:34;99318.81;;;9.27;49.40
79707;BME280;69200;53.612;-2.416;2023-04-24T10:03:59;99317.63;;;9.06;49.55
79707;BME280;69200;53.612;-2.416;2023-04-24T10:06:34;99334.75;;;9.40;50.11
79707;BME280;69200;53.612;-2.416;2023-04-24T10:09:00;99335.41;;;9.31;49.13
79707;BME280;69200;53.612;-2.416;2023-04-24T10:11:30;99325.00;;;9.22;49.19
79707;BME280;69200;53.612;-2.416;2023-04-24T10:13:55;99324.50;;;9.59;48.59
79707;BME280;69200;53.612;-2.416;2023-04-24T10:16:23;99314.69;;;10.30;47.44
79707;BME280;69200;53.612;-2.416;2023-04-24T10:18:49;99331.63;;;10.86;45.36
79707;BME280;69200;53.612;-2.416;2023-04-24T10:21:15;99332.38;;;10.82;42.70
79707;BME280;69200;53.612;-2.416;2023-04-24T10:23:42;99334.25;;;10.54;45.38
79707;BME280;69200;53.612;-2.416;2023-04-24T10:26:09;99318.22;;;10.31;44.67
79707;BME280;69200;53.612;-2.416;2023-04-24T10:28:36;99322.97;;;10.41;45.06
79707;BME280;69200;53.612;-2.416;2023-04-24T10:31:02;99325.16;;;10.65;43.54
79707;BME280;69200;53.612;-2.416;2023-04-24T10:33:29;99335.16;;;10.60;43.59
79707;BME280;69200;53.612;-2.416;2023-04-24T10:35:56;99333.53;;;10.42;43.35
79707;BME280;69200;53.612;-2.416;2023-04-24T10:38:25;99338.84;;;10.76;43.25
79707;BME280;69200;53.612;-2.416;2023-04-24T10:40:57;99343.25;;;9.99;44.23
79707;BME280;69200;53.612;-2.416;2023-04-24T10:43:22;99325.22;;;9.88;45.21
79707;BME280;69200;53.612;-2.416;2023-04-24T10:46:02;99333.41;;;9.76;43.91
79707;BME280;69200;53.612;-2.416;2023-04-24T10:48:28;99331.94;;;9.86;46.73
79707;BME280;69200;53.612;-2.416;2023-04-24T10:50:54;99342.44;;;9.99;46.96
79707;BME280;69200;53.612;-2.416;2023-04-24T10:53:24;99344.09;;;9.83;48.14
79707;BME280;69200;53.612;-2.416;2023-04-24T10:56:08;99342.31;;;10.49;46.49
79707;BME280;69200;53.612;-2.416;2023-04-24T10:58:50;99350.00;;;10.57;46.18
79707;BME280;69200;53.612;-2.416;2023-04-24T11:01:31;99341.19;;;10.23;43.50
79707;BME280;69200;53.612;-2.416;2023-04-24T11:04:02;99346.81;;;10.22;44.29
79707;BME280;69200;53.612;-2.416;2023-04-24T11:06:37;99336.34;;;10.69;44.70
79707;BME280;69200;53.612;-2.416;2023-04-24T11:09:09;99342.50;;;11.13;41.92
79707;BME280;69200;53.612;-2.416;2023-04-24T11:11:38;99339.69;;;11.03;41.78
79707;BME280;69200;53.612;-2.416;2023-04-24T11:14:09;99334.03;;;11.37;41.25
79707;BME280;69200;53.612;-2.416;2023-04-24T11:19:10;99341.28;;;10.12;43.49
79707;BME280;69200;53.612;-2.416;2023-04-24T11:24:29;99348.19;;;9.69;44.03
79707;BME280;69200;53.612;-2.416;2023-04-24T11:27:16;99354.78;;;9.90;44.24
79707;BME280;69200;53.612;-2.416;2023-04-24T11:34:54;99368.31;;;8.94;48.12
79707;BME280;69200;53.612;-2.416;2023-04-24T11:37:20;99367.19;;;9.07;47.71
79707;BME280;69200;53.612;-2.416;2023-04-24T11:39:45;99367.19;;;8.78;48.09
79707;BME280;69200;53.612;-2.416;2023-04-24T11:42:14;99370.22;;;8.82;49.59
79707;BME280;69200;53.612;-2.416;2023-04-24T11:44:41;99380.66;;;9.18;48.01
79707;BME280;69200;53.612;-2.416;2023-04-24T11:47:08;99363.13;;;9.38;45.67
79707;BME280;69200;53.612;-2.416;2023-04-24T11:49:34;99354.84;;;9.78;43.66
79707;BME280;69200;53.612;-2.416;2023-04-24T11:52:01;99358.75;;;10.21;43.66
79707;BME280;69200;53.612;-2.416;2023-04-24T11:54:27;99347.16;;;10.25;43.29
79707;BME280;69200;53.612;-2.416;2023-04-24T11:56:53;99364.38;;;9.47;45.02
79707;BME280;69200;53.612;-2.416;2023-04-24T11:59:18;99367.66;;;9.66;46.23
79707;BME280;69200;53.612;-2.416;2023-04-24T12:01:48;99372.41;;;9.25;46.60
79707;BME280;69200;53.612;-2.416;2023-04-24T12:04:14;99358.72;;;9.32;47.28
79707;BME280;69200;53.612;-2.416;2023-04-24T12:06:59;99377.28;;;9.11;46.57
79707;BME280;69200;53.612;-2.416;2023-04-24T12:09:25;99385.09;;;8.96;47.56
79707;BME280;69200;53.612;-2.416;2023-04-24T12:11:55;99362.09;;;9.10;47.19
79707;BME280;69200;53.612;-2.416;2023-04-24T12:14:22;99381.44;;;9.02;47.38
79707;BME280;69200;53.612;-2.416;2023-04-24T12:16:51;99389.41;;;9.54;46.23
79707;BME280;69200;53.612;-2.416;2023-04-24T12:19:23;99378.38;;;9.27;46.45
79707;BME280;69200;53.612;-2.416;2023-04-24T12:22:02;99396.81;;;9.59;46.19
79707;BME280;69200;53.612;-2.416;2023-04-24T12:24:28;99388.22;;;9.16;46.20
79707;BME280;69200;53.612;-2.416;2023-04-24T12:26:54;99397.78;;;9.52;44.56
79707;BME280;69200;53.612;-2.416;2023-04-24T12:29:23;99382.19;;;9.43;44.06
79707;BME280;69200;53.612;-2.416;2023-04-24T12:31:50;99390.06;;;9.61;44.24
79707;BME280;69200;53.612;-2.416;2023-04-24T12:34:20;99390.66;;;9.46;44.83
79707;BME280;69200;53.612;-2.416;2023-04-24T12:36:46;99398.03;;;9.51;42.90
79707;BME280;69200;53.612;-2.416;2023-04-24T12:39:18;99403.16;;;8.90;43.49
79707;BME280;69200;53.612;-2.416;2023-04-24T12:41:57;99398.94;;;9.11;43.71
79707;BME280;69200;53.612;-2.416;2023-04-24T12:44:35;99391.72;;;9.62;44.15
79707;BME280;69200;53.612;-2.416;2023-04-24T12:47:02;99415.69;;;9.70;43.74
79707;BME280;69200;53.612;-2.416;2023-04-24T12:49:29;99390.56;;;9.75;44.44
79707;BME280;69200;53.612;-2.416;2023-04-24T12:51:55;99395.66;;;10.05;42.73
79707;BME280;69200;53.612;-2.416;2023-04-24T12:54:21;99392.16;;;10.43;43.63
79707;BME280;69200;53.612;-2.416;2023-04-24T12:56:46;99397.38;;;10.50;41.67
79707;BME280;69200;53.612;-2.416;2023-04-24T12:59:12;99394.25;;;10.36;41.32
79707;BME280;69200;53.612;-2.416;2023-04-24T13:01:37;99410.59;;;9.57;42.33
79707;BME280;69200;53.612;-2.416;2023-04-24T13:04:02;99414.50;;;9.33;43.73
79707;BME280;69200;53.612;-2.416;2023-04-24T13:06:28;99422.00;;;8.74;46.97
79707;BME280;69200;53.612;-2.416;2023-04-24T13:08:53;99420.50;;;8.54;48.05
79707;BME280;69200;53.612;-2.416;2023-04-24T13:11:20;99421.31;;;8.66;49.57